avis per tempestes more information blitzortung!


avis per Pluja more information rain snow radar


Visita la nostra xarxa de llocs de meteo:

Template documentation
and downloads

And another site



Thunderstorms From: 18-09-2018 20:00 Until: 19-09-2018 10:59 warning for: Thunderstorms Level: Yellow info button
Rain From: 18-09-2018 20:00 Until: 19-09-2018 10:59 warning for: Rain Level: Yellow info button

Pagina Historial Weather Underground text

Diari Resum May 21, 2017 Unitats:  Mètric    Imperial   Tant
« Previous Dia
SegĂźent Dia »
Diari Setmana Mensual Anual Personalitzada
  Maxima: Minima: Media:
Temperatura: -17.8 °C -11.4 °C -6.3 °C
Punt de rosada: -17.8 °C -13.7 °C -12.2 °C
Humitat: Humidity % 39 % 52 %
Wind Speed: 0 km/h 0 km/h 12.2 km/h
RĂ fegues de vent: 0 km/h - -
Vent:- - SSW
Pression baro: 0 hPa 34496.6 hPa -
Precipitacions: 0 mm    
Historical Graphs
 
 
Dades de taula per May 21, 2017
Temps Temperatura Punt de rosada Pression baro Vent Wind Speed RĂ fegues de vent Humitat Rainfall Rate (Hourly)
-17.8 °C -17.8 °C 0 hPa Calm     Humidity % 0 mm
00:00 -10.8 °C -12.9 °C 34669.3 hPa SSW 2.6 km/h 2.6 km/h 78 % 0 mm
00:04 -9.2 °C -12.1 °C 34740.4 hPa NE 9 km/h 9 km/h 71 % 0 mm
00:09 -9.2 °C -12.1 °C 34740.4 hPa NE 6 km/h 6 km/h 71 % 0 mm
00:10 -10.9 °C -12.9 °C 34703.1 hPa Calm     78 % 0 mm
00:20 -11.1 °C -13.1 °C 34703.1 hPa Calm     78 % 0 mm
00:30 -11.1 °C -13.1 °C 34669.3 hPa ESE 2.6 km/h 5.1 km/h 79 % 0 mm
00:40 -11.2 °C -13.1 °C 34669.3 hPa ENE 2.6 km/h 5.1 km/h 79 % 0 mm
00:50 -11.2 °C -13.1 °C 34669.3 hPa NE 2.6 km/h 5.1 km/h 79 % 0 mm
01:00 -11.2 °C -13.2 °C 34669.3 hPa Calm   2.6 km/h 79 % 0 mm
01:10 -11.3 °C -13.2 °C 34669.3 hPa Calm     79 % 0 mm
01:20 -11.3 °C -13.3 °C 34669.3 hPa East 2.6 km/h 2.6 km/h 79 % 0 mm
01:30 -11.4 °C -13.3 °C 34669.3 hPa Calm     79 % 0 mm
01:40 -11.4 °C -13.3 °C 34669.3 hPa Calm     80 % 0 mm
01:50 -11.4 °C -13.3 °C 34669.3 hPa NNE 2.6 km/h 2.6 km/h 80 % 0 mm
02:00 -11.4 °C -13.2 °C 34703.1 hPa Calm   5.1 km/h 80 % 0 mm
02:10 -11.2 °C -13.1 °C 34669.3 hPa Calm   5.1 km/h 80 % 0 mm
02:20 -11.1 °C -12.9 °C 34669.3 hPa ESE 2.6 km/h 5.1 km/h 80 % 0 mm
02:30 -11.1 °C -13 °C 34669.3 hPa South 5.1 km/h 5.1 km/h 79 % 0 mm
02:40 -11 °C -12.9 °C 34703.1 hPa SW 2.6 km/h 5.1 km/h 79 % 0 mm
02:50 -10.9 °C -12.9 °C 34703.1 hPa WSW 2.6 km/h 7.7 km/h 79 % 0 mm
03:00 -10.5 °C -12.4 °C 34703.1 hPa Calm   2.6 km/h 79 % 0 mm
03:10 -10.1 °C -12.3 °C 34703.1 hPa SSW 5.1 km/h 5.1 km/h 77 % 0 mm
03:20 -10.2 °C -12.4 °C 34703.1 hPa SSW 2.6 km/h 5.1 km/h 76 % 0 mm
03:30 -9.8 °C -12.2 °C 34669.3 hPa SW 5.1 km/h 5.1 km/h 76 % 0 mm
03:40 -9.4 °C -11.8 °C 34669.3 hPa SW 2.6 km/h 5.1 km/h 75 % 0 mm
03:50 -8.9 °C -11.5 °C 34669.3 hPa Calm   5.1 km/h 74 % 0 mm
04:00 -9.1 °C -12 °C 34703.1 hPa NE 7.7 km/h 7.7 km/h 71 % 0 mm
04:10 -8.8 °C -11.8 °C 34669.3 hPa NE 5.1 km/h 10.3 km/h 71 % 0 mm
04:20 -8.7 °C -11.8 °C 34669.3 hPa ENE 5.1 km/h 7.7 km/h 70 % 0 mm
04:30 -8.4 °C -11.6 °C 34669.3 hPa ENE 5.1 km/h 7.7 km/h 69 % 0 mm
04:40 -7.9 °C -11.3 °C 34669.3 hPa Calm   5.1 km/h 67 % 0 mm
04:50 -7.8 °C -11.6 °C 34669.3 hPa NE 5.1 km/h 7.7 km/h 65 % 0 mm
05:00 -7.7 °C -11.4 °C 34669.3 hPa NE 2.6 km/h 7.7 km/h 65 % 0 mm
05:10 -7.6 °C -11.4 °C 34669.3 hPa ENE 7.7 km/h 7.7 km/h 64 % 0 mm
05:20 -7.3 °C -11.3 °C 34669.3 hPa ENE 2.6 km/h 10.3 km/h 63 % 0 mm
05:30 -6.8 °C -11.2 °C 34669.3 hPa SE 5.1 km/h 5.1 km/h 61 % 0 mm
05:40 -6.8 °C -11.2 °C 34669.3 hPa South 5.1 km/h 7.7 km/h 60 % 0 mm
05:50 -6.6 °C -11.3 °C 34669.3 hPa SSW 2.6 km/h 5.1 km/h 58 % 0 mm
06:00 -6.2 °C -11.2 °C 34635.4 hPa SSW 5.1 km/h 10.3 km/h 57 % 0 mm
06:10 -6.1 °C -11.1 °C 34669.3 hPa SSW 5.1 km/h 7.7 km/h 56 % 0 mm
06:20 -5.9 °C -11.3 °C 34669.3 hPa SSW 5.1 km/h 12.9 km/h 54 % 0 mm
06:30 -5.8 °C -11.5 °C 34669.3 hPa SW 7.7 km/h 12.9 km/h 52 % 0 mm
06:40 -5.4 °C -11.2 °C 34669.3 hPa WSW 7.7 km/h 12.9 km/h 52 % 0 mm
06:50 -5.4 °C -11.3 °C 34669.3 hPa SW 7.7 km/h 15.6 km/h 51 % 0 mm
07:00 -4.9 °C -11 °C 34669.3 hPa SSW 12.9 km/h 12.9 km/h 50 % 0 mm
07:10 -4.8 °C -11.1 °C 34669.3 hPa SSW 7.7 km/h 7.7 km/h 49 % 0 mm
12:14 -4.7 °C -10.9 °C 34669.3 hPa SSW 9 km/h 9.8 km/h 49 % 0 mm
12:15 -4.7 °C -10.9 °C 34669.3 hPa SW 9 km/h 9.8 km/h 49 % 0 mm
12:20 -4.6 °C -10.9 °C 34669.3 hPa SW 15 km/h 15 km/h 49 % 0 mm
12:25 -4.6 °C -11.1 °C 34669.3 hPa SW 15 km/h 15 km/h 48 % 0 mm
12:30 -4.6 °C -10.9 °C 34669.3 hPa SW 20.9 km/h 20.9 km/h 49 % 0 mm
12:35 -4.4 °C -10.7 °C 34669.3 hPa SW 20.9 km/h 20.9 km/h 49 % 0 mm
12:40 -4.2 °C -10.5 °C 34669.3 hPa SSW 11.9 km/h 11.9 km/h 49 % 0 mm
12:45 -4.5 °C -10.8 °C 34669.3 hPa SW 15 km/h 17.4 km/h 49 % 0 mm
12:50 -4.6 °C -10.9 °C 34669.3 hPa SSW 15 km/h 15 km/h 49 % 0 mm
12:55 -4.6 °C -10.9 °C 34635.4 hPa WNW 23.8 km/h 23.8 km/h 49 % 0 mm
13:00 -4.4 °C -10.8 °C 34635.4 hPa SSW 17.9 km/h 17.9 km/h 49 % 0 mm
13:05 -4.6 °C -10.9 °C 34635.4 hPa WNW 26.9 km/h 26.9 km/h 49 % 0 mm
13:10 -4.4 °C -10.9 °C 34635.4 hPa SSW 11.9 km/h 11.9 km/h 48 % 0 mm
13:15 -4.3 °C -10.8 °C 34635.4 hPa WSW 29.8 km/h 29.8 km/h 48 % 0 mm
13:17 -4.4 °C -10.9 °C 34635.4 hPa SSW 23.8 km/h 23.8 km/h 48 % 0 mm
13:22 -4.4 °C -10.9 °C 34635.4 hPa WSW 11.9 km/h 11.9 km/h 48 % 0 mm
13:27 -4.2 °C -10.7 °C 34635.4 hPa SW 15.6 km/h 15.6 km/h 48 % 0 mm
13:32 -4.3 °C -10.9 °C 34635.4 hPa SW 9 km/h 9.8 km/h 47 % 0 mm
13:37 -4.1 °C -10.8 °C 34635.4 hPa SW 9 km/h 9 km/h 47 % 0 mm
13:42 -3.9 °C -10.7 °C 34635.4 hPa South 16.6 km/h 16.6 km/h 47 % 0 mm
13:47 -3.8 °C -10.7 °C 34635.4 hPa SE 11.9 km/h 11.9 km/h 46 % 0 mm
13:52 -3.9 °C -11 °C 34635.4 hPa ESE 20.3 km/h 20.3 km/h 45 % 0 mm
13:57 -3.8 °C -11.1 °C 34635.4 hPa ESE 11.9 km/h 11.9 km/h 44 % 0 mm
14:02 -3.8 °C -11.1 °C 34635.4 hPa SW 11.9 km/h 11.9 km/h 44 % 0 mm
14:07 -4.1 °C -11.2 °C 34635.4 hPa SSW 10.3 km/h 10.3 km/h 45 % 0 mm
14:12 -3.8 °C -11.1 °C 34601.5 hPa SSW 15 km/h 15 km/h 44 % 0 mm
14:17 -3.5 °C -10.8 °C 34601.5 hPa South 11.9 km/h 11.9 km/h 44 % 0 mm
14:22 -3.7 °C -11.2 °C 34601.5 hPa SE 15 km/h 15 km/h 43 % 0 mm
14:27 -3.7 °C -11.2 °C 34601.5 hPa WSW 6.8 km/h 6.8 km/h 43 % 0 mm
14:32 -3.9 °C -11.3 °C 34601.5 hPa SE 15 km/h 15 km/h 43 % 0 mm
14:37 -3.5 °C -11 °C 34601.5 hPa SSW 9 km/h 9 km/h 43 % 0 mm
14:42 -3.4 °C -10.9 °C 34601.5 hPa West 6.8 km/h 6.8 km/h 43 % 0 mm
14:47 -3.5 °C -11 °C 34601.5 hPa WSW 20.9 km/h 20.9 km/h 43 % 0 mm
14:52 -3.6 °C -11.3 °C 34601.5 hPa SW 20.9 km/h 20.9 km/h 42 % 0 mm
14:57 -3.5 °C -11.2 °C 34601.5 hPa ESE 11.9 km/h 11.9 km/h 42 % 0 mm
15:02 -3.4 °C -11.2 °C 34601.5 hPa WSW 20.9 km/h 20.9 km/h 42 % 0 mm
15:07 -3.5 °C -11.2 °C 34601.5 hPa SSW 15 km/h 15 km/h 42 % 0 mm
15:12 -3.3 °C -11 °C 34601.5 hPa SSW 20.9 km/h 20.9 km/h 42 % 0 mm
15:17 -3.4 °C -11.2 °C 34601.5 hPa SW 17.9 km/h 17.9 km/h 42 % 0 mm
15:22 -3.4 °C -11.3 °C 34601.5 hPa WSW 15 km/h 15 km/h 41 % 0 mm
15:27 -3.4 °C -11.1 °C 34601.5 hPa WSW 9 km/h 9 km/h 42 % 0 mm
15:32 -3.2 °C -10.9 °C 34601.5 hPa WSW 15 km/h 15 km/h 42 % 0 mm
15:37 -3.3 °C -11.3 °C 34601.5 hPa WSW 20.9 km/h 20.9 km/h 41 % 0 mm
15:42 -3.3 °C -11.3 °C 34601.5 hPa SSW 26.9 km/h 26.9 km/h 41 % 0 mm
15:47 -3.2 °C -11.2 °C 34601.5 hPa SSW 17.9 km/h 17.9 km/h 41 % 0 mm
15:48 -3.3 °C -11.2 °C 34601.5 hPa SW 20.9 km/h 20.9 km/h 41 % 0 mm
15:53 -3.5 °C -11.4 °C 34567.7 hPa SW 23.8 km/h 23.8 km/h 41 % 0 mm
15:58 -3.6 °C -11.4 °C 34567.7 hPa SW 23.8 km/h 23.8 km/h 41 % 0 mm
16:03 -3.6 °C -11.4 °C 34567.7 hPa West 20.9 km/h 20.9 km/h 41 % 0 mm
16:08 -3.6 °C -11.5 °C 34567.7 hPa WSW 23.8 km/h 23.8 km/h 41 % 0 mm
16:13 -3.4 °C -11.3 °C 34567.7 hPa South 15 km/h 15 km/h 41 % 0 mm
16:18 -3.6 °C -11.5 °C 34567.7 hPa SW 20.9 km/h 20.9 km/h 41 % 0 mm
16:19 -3.6 °C -11.4 °C 34567.7 hPa SW 22.5 km/h 22.5 km/h 41 % 0 mm
16:24 -3.6 °C -11.4 °C 34567.7 hPa West 20.9 km/h 20.9 km/h 41 % 0 mm
16:29 -3.6 °C -11.7 °C 34567.7 hPa SW 35.7 km/h 35.7 km/h 40 % 0 mm
16:34 -3.6 °C -11.7 °C 34567.7 hPa South 17.9 km/h 17.9 km/h 40 % 0 mm
16:39 -3.6 °C -11.7 °C 34567.7 hPa SSW 20.9 km/h 20.9 km/h 40 % 0 mm
16:44 -3.7 °C -11.8 °C 34567.7 hPa SW 23.8 km/h 23.8 km/h 40 % 0 mm
16:49 -3.6 °C -11.7 °C 34567.7 hPa WSW 15 km/h 15 km/h 40 % 0 mm
16:54 -3.4 °C -11.5 °C 34567.7 hPa SSW 11.9 km/h 11.9 km/h 40 % 0 mm
16:59 -3.3 °C -11.4 °C 34567.7 hPa SW 15.3 km/h 15.3 km/h 40 % 0 mm
17:04 -3.6 °C -11.7 °C 34567.7 hPa WSW 29.8 km/h 29.8 km/h 40 % 0 mm
17:09 -3.7 °C -11.8 °C 34533.8 hPa SW 19.2 km/h 19.2 km/h 40 % 0 mm
17:14 -3.6 °C -11.7 °C 34533.8 hPa SW 20.9 km/h 20.9 km/h 40 % 0 mm
17:19 -3.6 °C -11.9 °C 34533.8 hPa SSE 15 km/h 15 km/h 39 % 0 mm
17:24 -3.8 °C -12.1 °C 34533.8 hPa WSW 17.9 km/h 17.9 km/h 39 % 0 mm
17:29 -3.8 °C -12.1 °C 34533.8 hPa SSW 12.2 km/h 12.2 km/h 39 % 0 mm
17:34 -4.1 °C -12.2 °C 34533.8 hPa SW 20.9 km/h 20.9 km/h 40 % 0 mm
17:39 -4.2 °C -12.3 °C 34533.8 hPa SSW 38.1 km/h 38.1 km/h 40 % 0 mm
17:40 -4.2 °C -12.3 °C 34533.8 hPa SSW 15.3 km/h 15.3 km/h 40 % 0 mm
17:45 -4.3 °C -12.4 °C 34533.8 hPa SW 27.2 km/h 27.2 km/h 40 % 0 mm
17:50 -4.4 °C -12.4 °C 34533.8 hPa SW 25.1 km/h 25.1 km/h 40 % 0 mm
17:55 -4.4 °C -12.4 °C 34496.6 hPa South 17.9 km/h 17.9 km/h 40 % 0 mm
18:00 -4.4 °C -12.4 °C 34496.6 hPa SW 15.6 km/h 23.3 km/h 40 % 0 mm
18:05 -4.4 °C -12.2 °C 34496.6 hPa SW 12.9 km/h 25.9 km/h 41 % 0 mm
18:10 -4.5 °C -12.3 °C 34533.8 hPa WSW 26.9 km/h 26.9 km/h 41 % 0 mm
18:15 -4.7 °C -12.7 °C 34533.8 hPa SW 16.1 km/h 16.1 km/h 40 % 0 mm
18:20 -4.8 °C -12.6 °C 34533.8 hPa SW 20.9 km/h 20.9 km/h 41 % 0 mm
18:25 -4.8 °C -12.6 °C 34533.8 hPa SW 11.9 km/h 11.9 km/h 41 % 0 mm
18:30 -4.9 °C -12.7 °C 34533.8 hPa SW 26.9 km/h 26.9 km/h 41 % 0 mm
18:35 -5.3 °C -12.8 °C 34533.8 hPa West 20.9 km/h 20.9 km/h 42 % 0 mm
18:40 -5.4 °C -12.9 °C 34533.8 hPa SSW 17.9 km/h 17.9 km/h 42 % 0 mm
18:45 -5.5 °C -13 °C 34533.8 hPa SW 32.8 km/h 32.8 km/h 42 % 0 mm
18:50 -5.5 °C -12.8 °C 34533.8 hPa SW 26.9 km/h 26.9 km/h 43 % 0 mm
18:55 -5.4 °C -12.8 °C 34567.7 hPa SSE 11.9 km/h 11.9 km/h 43 % 0 mm
19:00 -5.5 °C -12.8 °C 34567.7 hPa West 20.9 km/h 20.9 km/h 43 % 0 mm
19:05 -5.7 °C -12.8 °C 34567.7 hPa West 35.7 km/h 35.7 km/h 44 % 0 mm
19:10 -5.8 °C -12.9 °C 34567.7 hPa SW 25.1 km/h 25.1 km/h 44 % 0 mm
19:15 -6.1 °C -12.9 °C 34567.7 hPa SSW 20.9 km/h 20.9 km/h 45 % 0 mm
19:20 -6.1 °C -13 °C 34567.7 hPa SSW 15 km/h 15 km/h 45 % 0 mm
19:25 -6.1 °C -12.9 °C 34567.7 hPa SSW 9 km/h 9 km/h 45 % 0 mm
19:30 -6.1 °C -12.9 °C 34567.7 hPa SW 22 km/h 22 km/h 45 % 0 mm
19:35 -6.2 °C -12.9 °C 34567.7 hPa SW 20.9 km/h 20.9 km/h 46 % 0 mm
19:40 -6.4 °C -13.1 °C 34567.7 hPa SSW 15 km/h 15 km/h 46 % 0 mm
19:45 -6.6 °C -13.2 °C 34567.7 hPa SSW 23.8 km/h 23.8 km/h 46 % 0 mm
19:50 -6.6 °C -13.2 °C 34567.7 hPa WSW 25.4 km/h 25.4 km/h 46 % 0 mm
19:55 -6.7 °C -13.3 °C 34567.7 hPa SW 19.2 km/h 19.2 km/h 46 % 0 mm
20:00 -6.7 °C -13.4 °C 34567.7 hPa WSW 15 km/h 15 km/h 46 % 0 mm
20:05 -6.7 °C -13.3 °C 34567.7 hPa SW 11.9 km/h 11.9 km/h 46 % 0 mm
20:10 -6.7 °C -13.2 °C 34567.7 hPa SW 9 km/h 9 km/h 47 % 0 mm
20:15 -6.8 °C -13.2 °C 34567.7 hPa SW 15 km/h 15 km/h 47 % 0 mm
20:20 -6.9 °C -13.3 °C 34567.7 hPa WSW 11.9 km/h 11.9 km/h 47 % 0 mm
20:25 -7 °C -13.4 °C 34533.8 hPa SSW 15 km/h 15 km/h 47 % 0 mm
20:30 -7 °C -13.4 °C 34533.8 hPa WSW 15 km/h 15 km/h 47 % 0 mm
20:35 -7.1 °C -13.5 °C 34533.8 hPa SW 11.9 km/h 11.9 km/h 47 % 0 mm
20:40 -7.1 °C -13.5 °C 34533.8 hPa SSW 9 km/h 9 km/h 47 % 0 mm
20:45 -7.1 °C -13.6 °C 34533.8 hPa SW 11.9 km/h 11.9 km/h 47 % 0 mm
20:50 -7.2 °C -13.6 °C 34533.8 hPa SW 9 km/h 9 km/h 47 % 0 mm
20:55 -7.2 °C -13.7 °C 34533.8 hPa WSW 15.6 km/h 15.6 km/h 47 % 0 mm
21:00 -7.3 °C -13.5 °C 34533.8 hPa SSW 6 km/h 6.3 km/h 48 % 0 mm
21:05 -7.3 °C -13.4 °C 34533.8 hPa WSW 6 km/h 6 km/h 49 % 0 mm
21:10 -7.4 °C -13.4 °C 34533.8 hPa WSW 9 km/h 9 km/h 49 % 0 mm
21:15 -7.4 °C -13.5 °C 34533.8 hPa South 8.5 km/h 8.5 km/h 49 % 0 mm
21:20 -7.5 °C -13.6 °C 34533.8 hPa WSW 6 km/h 6 km/h 49 % 0 mm
21:25 -7.5 °C -13.6 °C 34533.8 hPa West 6 km/h 6 km/h 49 % 0 mm
21:30 -7.5 °C -13.6 °C 34533.8 hPa SW 6 km/h 6 km/h 49 % 0 mm
21:35 -7.6 °C -13.6 °C 34533.8 hPa SSW 9 km/h 9 km/h 49 % 0 mm
21:40 -7.6 °C -13.7 °C 34533.8 hPa WSW 9 km/h 9 km/h 49 % 0 mm
21:45 -7.6 °C -13.5 °C 34533.8 hPa WSW 5.6 km/h   50 % 0 mm
21:50 -7.7 °C -13.6 °C 34533.8 hPa WSW 9 km/h 9 km/h 50 % 0 mm
21:55 -7.7 °C -13.6 °C 34533.8 hPa West 9 km/h 9 km/h 50 % 0 mm
22:00 -7.7 °C -13.6 °C 34533.8 hPa SW 6 km/h 6 km/h 50 % 0 mm
22:05 -7.7 °C -13.6 °C 34533.8 hPa SW 6 km/h 6 km/h 50 % 0 mm
22:10 -7.8 °C -13.7 °C 34533.8 hPa SW 6 km/h 6 km/h 50 % 0 mm
22:15 -7.8 °C -13.7 °C 34533.8 hPa SW 6.3 km/h 6.3 km/h 50 % 0 mm
22:20 -7.9 °C -13.6 °C 34533.8 hPa SW 6 km/h 6 km/h 51 % 0 mm
22:25 -7.9 °C -13.7 °C 34533.8 hPa SW 11.9 km/h 11.9 km/h 51 % 0 mm
22:30 -7.9 °C -13.7 °C 34533.8 hPa WNW 6 km/h 6 km/h 51 % 0 mm
22:35 -7.9 °C -13.5 °C 34533.8 hPa WSW 3.1 km/h   52 % 0 mm
22:40 -7.9 °C -13.5 °C 34567.7 hPa SW 6 km/h 6 km/h 52 % 0 mm
22:45 -8 °C -13.4 °C 34567.7 hPa Calm     53 % 0 mm
22:50 -8 °C -13.4 °C 34567.7 hPa WSW 6 km/h 6 km/h 53 % 0 mm
22:51 -8 °C -13.4 °C 34567.7 hPa SW 6 km/h 6 km/h 53 % 0 mm
22:56 -8.1 °C -13.3 °C 34533.8 hPa WSW 6 km/h 6 km/h 54 % 0 mm
23:01 -8.1 °C -13.3 °C 34533.8 hPa WSW 9 km/h 9 km/h 54 % 0 mm
23:06 -8.1 °C -13.3 °C 34533.8 hPa SW 5.6 km/h 5.6 km/h 54 % 0 mm
23:11 -8.1 °C -13.2 °C 34533.8 hPa SW 4.2 km/h 4.2 km/h 55 % 0 mm
23:16 -8.1 °C -13.2 °C 34533.8 hPa WSW 6 km/h 6 km/h 55 % 0 mm
23:21 -8.1 °C -13.1 °C 34533.8 hPa SW 9 km/h 9 km/h 56 % 0 mm
23:26 -8.1 °C -12.9 °C 34567.7 hPa SW 6 km/h 6 km/h 57 % 0 mm
23:31 -8.1 °C -12.7 °C 34567.7 hPa WNW 6.3 km/h 6.3 km/h 58 % 0 mm
23:36 -8.1 °C -12.7 °C 34567.7 hPa WSW 6 km/h 6 km/h 58 % 0 mm
23:41 -8.1 °C -12.6 °C 34567.7 hPa WSW 6 km/h 6 km/h 59 % 0 mm
23:46 -8.2 °C -12.6 °C 34567.7 hPa SW 6 km/h 6 km/h 60 % 0 mm
23:51 -8.2 °C -12.4 °C 34567.7 hPa SW 6 km/h 6 km/h 61 % 0 mm
23:56 -8.3 °C -12.5 °C 34533.8 hPa SW 6 km/h 6 km/h 61 % 0 mm
Meteo Sesrovires
Elogis d' Weather Underground - 1.5 mb

Guio original per  Jim McMurry - jmcmurry@mwt.net Adaptat per a la plantilla per  Wim van der Kuil - Leuven-Template.eu

Trobareu la nostra informacio del temps tambe a:

Weather Underground

AWEKAS